createdAt,value
2022-09-06T00:00:57.839Z,19.44
2022-09-06T00:03:27.257Z,19.35
2022-09-06T00:05:54.504Z,19.28
2022-09-06T00:08:21.967Z,19.30
2022-09-06T00:11:00.401Z,19.35
2022-09-06T00:13:28.621Z,19.43
2022-09-06T00:15:57.081Z,19.45
2022-09-06T00:18:24.082Z,19.47
2022-09-06T00:20:50.977Z,19.46
2022-09-06T00:23:17.935Z,19.36
2022-09-06T00:25:45.071Z,19.33
2022-09-06T00:28:11.961Z,19.25
2022-09-06T00:30:38.854Z,19.24
2022-09-06T00:33:07.338Z,19.04
2022-09-06T00:35:34.294Z,19.05
2022-09-06T00:38:01.867Z,19.15
2022-09-06T00:40:32.514Z,19.17
2022-09-06T00:42:59.426Z,18.99
2022-09-06T00:45:28.901Z,18.97
2022-09-06T00:47:58.696Z,19.07
2022-09-06T00:50:28.147Z,19.10
2022-09-06T00:52:55.424Z,19.20
2022-09-06T00:55:22.667Z,19.23
2022-09-06T00:57:51.591Z,19.15
2022-09-06T01:00:20.683Z,19.09
2022-09-06T01:02:49.029Z,19.11
2022-09-06T01:05:17.026Z,19.05
2022-09-06T01:08:04.658Z,19.02
2022-09-06T01:10:58.845Z,19.13
2022-09-06T01:13:35.738Z,18.97
2022-09-06T01:16:12.029Z,18.90
2022-09-06T01:18:55.704Z,18.87
2022-09-06T01:21:40.267Z,18.78
2022-09-06T01:24:42.178Z,18.93
2022-09-06T01:27:27.108Z,19.11
2022-09-06T01:30:02.274Z,19.02
2022-09-06T01:32:34.342Z,19.15
2022-09-06T01:35:07.459Z,18.88
2022-09-06T01:37:34.571Z,18.97
2022-09-06T01:40:01.664Z,18.78
2022-09-06T01:42:31.733Z,18.99
2022-09-06T01:45:01.901Z,18.76
2022-09-06T01:47:38.176Z,18.91
2022-09-06T01:50:24.037Z,18.98
2022-09-06T01:53:02.426Z,18.94
2022-09-06T01:55:35.587Z,19.00
2022-09-06T01:58:18.076Z,18.82
2022-09-06T02:00:55.175Z,18.63
2022-09-06T02:03:30.094Z,18.82
2022-09-06T02:06:03.511Z,18.86
2022-09-06T02:08:34.699Z,18.92
2022-09-06T02:11:04.214Z,18.90
2022-09-06T02:13:35.128Z,19.00
2022-09-06T02:16:06.614Z,18.98
2022-09-06T02:18:35.324Z,18.88
2022-09-06T02:21:04.371Z,18.92
2022-09-06T02:23:35.778Z,18.95
2022-09-06T02:26:07.451Z,18.94
2022-09-06T02:28:34.539Z,18.94
2022-09-06T02:31:07.981Z,18.83
2022-09-06T02:33:35.851Z,18.82
2022-09-06T02:39:10.062Z,18.85
2022-09-06T02:41:38.019Z,18.85
2022-09-06T02:44:04.991Z,18.82
2022-09-06T02:46:33.532Z,18.72
2022-09-06T02:49:00.679Z,18.59
2022-09-06T02:51:27.753Z,18.56
2022-09-06T02:53:54.895Z,18.59
2022-09-06T02:56:21.991Z,18.62
2022-09-06T02:58:52.312Z,18.62
2022-09-06T03:01:19.440Z,18.53
2022-09-06T03:03:47.908Z,18.48
2022-09-06T03:06:14.890Z,18.52
2022-09-06T03:08:41.864Z,18.56
2022-09-06T03:11:09.230Z,18.47
2022-09-06T03:13:36.346Z,18.42
2022-09-06T03:16:03.491Z,18.37
2022-09-06T03:18:31.602Z,18.34
2022-09-06T03:21:00.029Z,18.29
2022-09-06T03:23:28.846Z,18.24
2022-09-06T03:25:56.358Z,18.23
2022-09-06T03:28:23.808Z,18.19
2022-09-06T03:30:52.759Z,18.15
2022-09-06T03:33:20.574Z,18.11
2022-09-06T03:35:49.099Z,18.08
2022-09-06T03:38:17.892Z,18.13
2022-09-06T03:40:46.323Z,18.13
2022-09-06T03:43:13.701Z,18.10
2022-09-06T03:45:44.469Z,18.09
2022-09-06T03:48:11.571Z,18.07
2022-09-06T03:50:38.525Z,17.95
2022-09-06T03:53:05.581Z,17.81
2022-09-06T03:55:33.979Z,17.91
2022-09-06T03:58:00.959Z,18.04
2022-09-06T04:00:28.066Z,18.09
2022-09-06T04:02:58.558Z,18.12
2022-09-06T04:05:28.107Z,18.13
2022-09-06T04:07:55.171Z,18.13
2022-09-06T04:10:22.157Z,17.97
2022-09-06T04:12:50.560Z,18.07
2022-09-06T04:15:17.642Z,18.14
2022-09-06T04:17:47.971Z,18.17
2022-09-06T04:20:15.671Z,18.23
2022-09-06T04:22:42.908Z,18.27
2022-09-06T04:25:12.885Z,18.30
2022-09-06T04:27:39.924Z,18.28
2022-09-06T04:30:09.596Z,18.27
2022-09-06T04:32:36.597Z,18.27
2022-09-06T04:35:04.096Z,18.02
2022-09-06T04:37:31.194Z,18.17
2022-09-06T04:39:58.278Z,17.99
2022-09-06T04:42:25.328Z,18.11
2022-09-06T04:44:52.332Z,18.16
2022-09-06T04:47:21.082Z,18.25
2022-09-06T04:49:50.543Z,18.27
2022-09-06T04:52:17.782Z,18.23
2022-09-06T04:54:45.625Z,18.32
2022-09-06T04:57:12.711Z,18.33
2022-09-06T04:59:39.711Z,18.34
2022-09-06T05:02:06.791Z,18.34
2022-09-06T05:04:35.252Z,18.38
2022-09-06T05:07:03.173Z,18.46
2022-09-06T05:09:30.537Z,18.52
2022-09-06T05:11:57.689Z,18.55
2022-09-06T05:14:24.825Z,18.54
2022-09-06T05:16:51.976Z,18.53
2022-09-06T05:19:19.269Z,18.55
2022-09-06T05:21:47.860Z,18.59
2022-09-06T05:24:14.835Z,18.56
2022-09-06T05:26:41.837Z,18.58
2022-09-06T05:29:08.916Z,18.61
2022-09-06T05:31:36.423Z,18.61
2022-09-06T05:34:03.474Z,18.64
2022-09-06T05:36:31.359Z,18.76
2022-09-06T05:39:00.193Z,18.83
2022-09-06T05:41:27.925Z,18.87
2022-09-06T05:43:55.247Z,18.84
2022-09-06T05:46:22.295Z,18.90
2022-09-06T05:48:53.520Z,18.90
2022-09-06T05:51:20.559Z,19.02
2022-09-06T05:53:47.879Z,19.13
2022-09-06T05:56:17.141Z,19.12
2022-09-06T05:58:44.396Z,19.22
2022-09-06T06:01:17.378Z,19.18
2022-09-06T06:03:51.117Z,18.85
2022-09-06T06:06:18.915Z,18.84
2022-09-06T06:08:46.176Z,19.13
2022-09-06T06:11:13.730Z,19.44
2022-09-06T06:13:43.371Z,19.65
2022-09-06T06:16:11.623Z,19.78
2022-09-06T06:18:39.051Z,19.77
2022-09-06T06:21:14.034Z,20.15
2022-09-06T06:23:42.209Z,21.36
2022-09-06T06:26:10.175Z,21.64
2022-09-06T06:28:37.756Z,21.34
2022-09-06T06:31:07.695Z,21.03
2022-09-06T06:33:36.322Z,20.82
2022-09-06T06:36:05.438Z,20.70
2022-09-06T06:38:33.411Z,20.61
2022-09-06T06:41:05.844Z,20.61
2022-09-06T06:43:38.046Z,20.64
2022-09-06T06:46:07.285Z,20.64
2022-09-06T06:48:35.102Z,20.62
2022-09-06T06:51:02.264Z,20.63
2022-09-06T06:53:29.192Z,20.62
2022-09-06T06:55:56.099Z,20.64
2022-09-06T06:58:23.014Z,20.63
2022-09-06T07:00:49.955Z,20.60
2022-09-06T07:03:18.451Z,20.59
2022-09-06T07:08:37.131Z,20.82
2022-09-06T07:11:04.853Z,20.88
2022-09-06T07:13:31.968Z,20.93
2022-09-06T07:16:10.366Z,20.97
2022-09-06T07:18:42.136Z,21.01
2022-09-06T07:24:05.977Z,21.45
2022-09-06T07:26:34.633Z,21.75
2022-09-06T07:29:03.100Z,22.28
2022-09-06T07:34:20.696Z,22.37
2022-09-06T07:36:48.448Z,23.32
2022-09-06T07:39:15.389Z,24.03
2022-09-06T07:41:43.703Z,24.42
2022-09-06T07:44:10.665Z,24.64
2022-09-06T07:46:38.169Z,24.80
2022-09-06T07:49:06.070Z,24.86
2022-09-06T07:51:34.462Z,24.77
2022-09-06T07:54:31.028Z,24.78
2022-09-06T07:56:49.021Z,24.77
2022-09-06T07:59:16.102Z,25.10
2022-09-06T08:01:43.118Z,25.74
2022-09-06T08:04:15.708Z,26.04
2022-09-06T08:09:33.790Z,26.13
2022-09-06T08:12:06.655Z,26.50
2022-09-06T08:14:33.874Z,26.83
2022-09-06T08:17:00.852Z,26.80
2022-09-06T08:19:28.613Z,26.62
2022-09-06T08:21:57.136Z,26.23
2022-09-06T08:24:24.099Z,26.72
2022-09-06T08:26:51.100Z,26.84
2022-09-06T08:29:21.966Z,27.29
2022-09-06T08:31:49.290Z,26.65
2022-09-06T08:34:16.458Z,26.53
2022-09-06T08:36:45.425Z,27.08
2022-09-06T08:39:13.753Z,27.23
2022-09-06T08:41:48.860Z,27.26
2022-09-06T08:47:08.872Z,28.28
2022-09-06T08:49:38.533Z,28.23
2022-09-06T08:53:06.514Z,28.18
2022-09-06T08:55:44.271Z,27.35
2022-09-06T08:58:26.034Z,27.82
2022-09-06T09:00:58.752Z,27.95
2022-09-06T09:03:31.858Z,28.27
2022-09-06T09:06:00.091Z,28.64
2022-09-06T09:08:32.061Z,28.61
2022-09-06T09:11:03.744Z,28.54
2022-09-06T09:13:35.123Z,28.90
2022-09-06T09:16:02.796Z,28.97
2022-09-06T09:18:33.576Z,28.50
2022-09-06T09:21:00.696Z,28.90
2022-09-06T09:23:29.038Z,28.91
2022-09-06T09:26:02.438Z,29.22
2022-09-06T09:28:29.536Z,29.12
2022-09-06T09:30:57.276Z,28.74
2022-09-06T09:33:28.589Z,28.75
2022-09-06T09:35:57.037Z,28.71
2022-09-06T09:38:27.068Z,28.65
2022-09-06T09:40:55.725Z,29.01
2022-09-06T09:43:25.828Z,29.47
2022-09-06T09:46:11.580Z,29.67
2022-09-06T09:48:39.271Z,29.18
2022-09-06T09:51:27.021Z,29.34
2022-09-06T09:53:55.806Z,29.01
2022-09-06T09:56:28.714Z,28.70
2022-09-06T09:58:59.047Z,29.39
2022-09-06T10:01:29.224Z,29.06
2022-09-06T10:09:37.224Z,30.25
2022-09-06T10:12:04.997Z,30.51
2022-09-06T10:14:41.110Z,30.66
2022-09-06T10:17:08.049Z,31.19
2022-09-06T10:19:39.611Z,30.77
2022-09-06T10:22:21.130Z,31.07
2022-09-06T10:25:12.912Z,30.91
2022-09-06T10:28:10.368Z,30.42
2022-09-06T10:30:46.648Z,29.94
2022-09-06T10:33:25.563Z,30.14
2022-09-06T10:35:53.211Z,30.80
2022-09-06T10:38:36.482Z,30.45
2022-09-06T10:41:23.906Z,30.63
2022-09-06T10:44:00.214Z,30.89
2022-09-06T10:46:33.702Z,30.39
2022-09-06T10:49:00.770Z,30.67
2022-09-06T10:51:36.415Z,29.99
2022-09-06T10:54:08.705Z,30.41
2022-09-06T10:56:43.610Z,29.96
2022-09-06T11:02:16.361Z,31.07
2022-09-06T11:07:37.951Z,30.86
2022-09-06T11:10:13.064Z,31.01
2022-09-06T11:12:48.844Z,31.34
2022-09-06T11:15:18.176Z,30.94
2022-09-06T11:17:53.404Z,30.81
2022-09-06T11:20:32.167Z,30.19
2022-09-06T11:23:23.842Z,29.99
2022-09-06T11:26:36.467Z,30.14
2022-09-06T11:29:06.891Z,30.13
2022-09-06T11:34:38.155Z,29.57
2022-09-06T11:37:07.294Z,29.42
2022-09-06T11:43:03.884Z,29.54
2022-09-06T11:45:43.561Z,29.39
2022-09-06T11:48:34.585Z,29.51
2022-09-06T11:51:06.818Z,29.12
2022-09-06T11:53:55.703Z,29.26
2022-09-06T11:56:31.575Z,29.24
2022-09-06T11:59:05.753Z,29.12
2022-09-06T12:01:38.081Z,28.51
2022-09-06T12:04:10.131Z,28.74
2022-09-06T12:06:41.918Z,29.06
2022-09-06T12:09:29.026Z,29.33
2022-09-06T12:11:56.691Z,29.07
2022-09-06T12:14:31.354Z,29.09
2022-09-06T12:17:19.893Z,28.83
2022-09-06T12:19:48.694Z,28.78
2022-09-06T12:23:01.616Z,28.40
2022-09-06T12:25:58.575Z,28.18
2022-09-06T12:28:31.790Z,28.21
2022-09-06T12:30:59.586Z,28.69
2022-09-06T12:33:31.137Z,28.61
2022-09-06T12:36:13.207Z,28.23
2022-09-06T12:38:40.260Z,28.37
2022-09-06T12:41:08.896Z,28.23
2022-09-06T12:43:39.249Z,28.26
2022-09-06T12:46:07.990Z,28.37
2022-09-06T12:48:39.115Z,28.41
2022-09-06T12:51:08.097Z,28.56
2022-09-06T12:53:35.414Z,28.73
2022-09-06T12:56:05.353Z,28.42
2022-09-06T12:58:33.841Z,28.36
2022-09-06T13:01:08.635Z,28.28
2022-09-06T13:03:40.194Z,28.47
2022-09-06T13:06:08.216Z,28.80
2022-09-06T13:08:42.231Z,29.31
2022-09-06T13:11:13.579Z,29.57
2022-09-06T13:13:48.566Z,29.23
2022-09-06T13:16:20.916Z,29.57
2022-09-06T13:18:48.038Z,29.87
2022-09-06T13:21:25.434Z,30.31
2022-09-06T13:23:52.563Z,30.06
2022-09-06T13:26:33.194Z,29.77
2022-09-06T13:29:11.322Z,29.74
2022-09-06T13:31:38.439Z,29.33
2022-09-06T13:34:05.870Z,29.33
2022-09-06T13:36:33.770Z,29.58
2022-09-06T13:39:03.785Z,29.26
2022-09-06T13:41:41.316Z,29.58
2022-09-06T13:44:21.984Z,29.18
2022-09-06T13:46:53.525Z,29.25
2022-09-06T13:49:20.548Z,29.46
2022-09-06T13:51:47.454Z,29.76
2022-09-06T13:54:15.815Z,29.60
2022-09-06T13:56:44.814Z,29.75
2022-09-06T13:59:12.719Z,29.51
2022-09-06T14:01:44.816Z,29.52
2022-09-06T14:04:14.711Z,29.93
2022-09-06T14:06:41.855Z,29.91
2022-09-06T14:09:09.312Z,29.67
2022-09-06T14:11:37.566Z,29.94
2022-09-06T14:14:05.081Z,29.71
2022-09-06T14:16:33.252Z,29.59
2022-09-06T14:19:01.735Z,29.23
2022-09-06T14:21:28.843Z,29.54
2022-09-06T14:23:58.828Z,29.98
2022-09-06T14:26:28.341Z,30.07
2022-09-06T14:28:55.596Z,30.32
2022-09-06T14:31:26.185Z,30.53
2022-09-06T14:33:53.882Z,30.59
2022-09-06T14:36:24.883Z,30.70
2022-09-06T14:38:52.705Z,30.61
2022-09-06T14:41:20.245Z,29.86
2022-09-06T14:43:49.978Z,30.21
2022-09-06T14:46:18.346Z,30.30
2022-09-06T14:48:46.004Z,30.28
2022-09-06T14:51:17.974Z,30.09
2022-09-06T14:53:46.631Z,30.28
2022-09-06T14:56:13.843Z,30.11
2022-09-06T14:58:41.800Z,30.31
2022-09-06T15:01:13.057Z,30.54
2022-09-06T15:03:41.274Z,30.25
2022-09-06T15:06:09.408Z,30.13
2022-09-06T15:08:36.725Z,30.39
2022-09-06T15:11:08.233Z,30.33
2022-09-06T15:13:36.476Z,30.45
2022-09-06T15:16:03.566Z,30.48
2022-09-06T15:18:30.861Z,30.30
2022-09-06T15:20:57.763Z,30.12
2022-09-06T15:23:27.133Z,30.09
2022-09-06T15:25:54.292Z,29.84
2022-09-06T15:28:22.707Z,30.15
2022-09-06T15:30:49.919Z,30.08
2022-09-06T15:33:17.035Z,29.93
2022-09-06T15:35:44.534Z,29.88
2022-09-06T15:38:12.443Z,29.94
2022-09-06T15:40:39.477Z,29.85
2022-09-06T15:43:06.677Z,29.89
2022-09-06T15:45:47.454Z,30.11
2022-09-06T15:48:15.983Z,30.21
2022-09-06T15:50:51.338Z,29.81
2022-09-06T15:53:18.924Z,29.53
2022-09-06T15:55:58.026Z,29.33
2022-09-06T15:58:25.479Z,29.29
2022-09-06T16:01:08.883Z,29.20
2022-09-06T16:03:37.645Z,29.34
2022-09-06T16:08:55.382Z,29.35
2022-09-06T16:11:22.399Z,29.20
2022-09-06T16:13:49.545Z,29.22
2022-09-06T16:16:18.120Z,29.07
2022-09-06T16:18:47.351Z,29.23
2022-09-06T16:21:16.659Z,28.99
2022-09-06T16:23:48.448Z,28.87
2022-09-06T16:26:20.591Z,28.88
2022-09-06T16:28:50.026Z,28.99
2022-09-06T16:31:19.673Z,28.91
2022-09-06T16:33:48.784Z,28.88
2022-09-06T16:36:16.774Z,28.70
2022-09-06T16:38:44.157Z,28.84
2022-09-06T16:41:14.462Z,28.97
2022-09-06T16:43:41.957Z,28.84
2022-09-06T16:46:09.962Z,28.83
2022-09-06T16:48:40.702Z,28.74
2022-09-06T16:51:13.357Z,28.70
2022-09-06T16:53:41.843Z,28.55
2022-09-06T16:56:09.507Z,28.57
2022-09-06T16:58:36.663Z,28.50
2022-09-06T17:01:03.621Z,28.28
2022-09-06T17:03:30.852Z,28.15
2022-09-06T17:05:59.197Z,28.21
2022-09-06T17:08:26.369Z,28.19
2022-09-06T17:10:53.643Z,28.22
2022-09-06T17:13:20.615Z,28.18
2022-09-06T17:16:13.682Z,28.13
2022-09-06T17:18:40.924Z,28.01
2022-09-06T17:21:09.313Z,28.04
2022-09-06T17:23:37.343Z,27.97
2022-09-06T17:26:04.948Z,27.89
2022-09-06T17:28:33.635Z,27.79
2022-09-06T17:31:02.156Z,27.72
2022-09-06T17:33:30.414Z,27.55
2022-09-06T17:36:06.141Z,27.51
2022-09-06T17:38:35.150Z,27.41
2022-09-06T17:41:02.479Z,27.03
2022-09-06T17:43:29.554Z,26.80
2022-09-06T17:45:56.652Z,26.67
2022-09-06T17:48:25.051Z,26.68
2022-09-06T17:50:53.779Z,26.69
2022-09-06T17:53:20.747Z,26.59
2022-09-06T17:55:52.122Z,26.45
2022-09-06T17:58:19.974Z,26.43
2022-09-06T18:00:47.041Z,26.50
2022-09-06T18:03:14.599Z,26.50
2022-09-06T18:05:41.829Z,26.42
2022-09-06T18:08:09.375Z,26.38
2022-09-06T18:10:37.477Z,26.33
2022-09-06T18:13:06.466Z,26.20
2022-09-06T18:15:38.529Z,26.08
2022-09-06T18:18:05.801Z,26.02
2022-09-06T18:20:32.832Z,25.95
2022-09-06T18:23:00.395Z,25.85
2022-09-06T18:25:28.595Z,25.78
2022-09-06T18:27:55.630Z,25.67
2022-09-06T18:30:24.007Z,25.59
2022-09-06T18:32:51.170Z,25.43
2022-09-06T18:35:18.176Z,25.38
2022-09-06T18:37:45.244Z,25.29
2022-09-06T18:40:12.272Z,25.23
2022-09-06T18:42:43.112Z,25.27
2022-09-06T18:45:11.165Z,25.32
2022-09-06T18:47:39.850Z,25.24
2022-09-06T18:50:08.132Z,25.08
2022-09-06T18:52:35.395Z,25.07
2022-09-06T18:55:02.394Z,24.95
2022-09-06T18:57:30.703Z,24.84
2022-09-06T18:59:58.164Z,24.84
2022-09-06T19:02:26.355Z,24.77
2022-09-06T19:04:56.092Z,24.65
2022-09-06T19:07:23.211Z,24.37
2022-09-06T19:09:53.373Z,24.28
2022-09-06T19:12:20.396Z,24.23
2022-09-06T19:14:50.337Z,24.14
2022-09-06T19:17:17.362Z,23.91
2022-09-06T19:19:44.361Z,23.99
2022-09-06T19:22:12.881Z,24.01
2022-09-06T19:24:40.463Z,24.04
2022-09-06T19:27:08.147Z,24.07
2022-09-06T19:29:35.116Z,24.03
2022-09-06T19:32:02.831Z,23.98
2022-09-06T19:34:30.209Z,23.82
2022-09-06T19:36:57.298Z,23.67
2022-09-06T19:39:34.785Z,23.65
2022-09-06T19:42:04.469Z,23.60
2022-09-06T19:44:32.617Z,23.60
2022-09-06T19:47:00.254Z,23.61
2022-09-06T19:49:27.297Z,23.59
2022-09-06T19:51:54.238Z,23.56
2022-09-06T19:54:21.181Z,23.60
2022-09-06T19:56:49.475Z,23.65
2022-09-06T19:59:16.522Z,23.61
2022-09-06T20:01:45.398Z,23.65
2022-09-06T20:04:13.851Z,23.61
2022-09-06T20:06:41.085Z,23.64
2022-09-06T20:09:10.445Z,23.61
2022-09-06T20:11:38.631Z,23.65
2022-09-06T20:14:07.055Z,23.77
2022-09-06T20:16:38.163Z,23.89
2022-09-06T20:19:07.820Z,23.90
2022-09-06T20:21:34.747Z,23.90
2022-09-06T20:24:02.120Z,23.88
2022-09-06T20:26:30.440Z,23.79
2022-09-06T20:28:59.163Z,23.71
2022-09-06T20:31:28.960Z,23.90
2022-09-06T20:33:56.759Z,23.84
2022-09-06T20:36:23.796Z,23.74
2022-09-06T20:38:50.864Z,23.90
2022-09-06T20:41:19.454Z,24.01
2022-09-06T20:43:50.878Z,24.08
2022-09-06T20:46:19.258Z,24.09
2022-09-06T20:48:48.046Z,24.09
2022-09-06T20:51:18.943Z,24.21
2022-09-06T20:53:46.711Z,24.25
2022-09-06T20:56:15.575Z,24.27
2022-09-06T20:58:42.967Z,24.24
2022-09-06T21:01:11.980Z,24.15
2022-09-06T21:03:41.126Z,24.14
2022-09-06T21:06:11.010Z,24.20
2022-09-06T21:08:42.594Z,24.24
2022-09-06T21:11:10.276Z,24.25
2022-09-06T21:13:37.997Z,24.22
2022-09-06T21:16:05.740Z,24.13
2022-09-06T21:18:34.036Z,24.18
2022-09-06T21:21:02.659Z,24.23
2022-09-06T21:23:33.322Z,24.20
2022-09-06T21:26:02.029Z,24.16
2022-09-06T21:28:30.532Z,24.20
2022-09-06T21:31:02.301Z,24.17
2022-09-06T21:33:30.078Z,24.11
2022-09-06T21:36:03.652Z,23.96
2022-09-06T21:38:32.460Z,23.89
2022-09-06T21:40:59.678Z,23.74
2022-09-06T21:43:26.844Z,23.61
2022-09-06T21:45:53.809Z,23.40
2022-09-06T21:48:20.877Z,23.42
2022-09-06T21:50:47.922Z,23.63
2022-09-06T21:53:15.485Z,23.79
2022-09-06T21:55:45.098Z,23.86
2022-09-06T21:58:13.204Z,23.80
2022-09-06T22:00:41.438Z,23.62
2022-09-06T22:03:09.331Z,23.57
2022-09-06T22:05:36.295Z,23.64
2022-09-06T22:08:03.643Z,23.65
2022-09-06T22:10:30.618Z,23.60
2022-09-06T22:12:58.948Z,23.50
2022-09-06T22:15:25.924Z,23.46
2022-09-06T22:17:52.952Z,23.47
2022-09-06T22:20:21.168Z,23.32
2022-09-06T22:22:48.546Z,23.00
2022-09-06T22:25:15.890Z,22.96
2022-09-06T22:27:42.900Z,22.94
2022-09-06T22:30:12.590Z,23.03
2022-09-06T22:32:40.050Z,23.07
2022-09-06T22:35:07.852Z,23.08
2022-09-06T22:37:35.031Z,23.09
2022-09-06T22:40:02.531Z,23.02
2022-09-06T22:42:29.982Z,22.99
2022-09-06T22:45:00.111Z,22.46
2022-09-06T22:47:28.453Z,22.07
2022-09-06T22:49:55.428Z,21.97
2022-09-06T22:52:22.552Z,21.28
2022-09-06T23:00:14.235Z,19.47
2022-09-06T23:02:42.823Z,19.42
2022-09-06T23:05:09.843Z,19.46
2022-09-06T23:07:36.899Z,19.48
2022-09-06T23:10:04.879Z,19.48
2022-09-06T23:12:31.868Z,19.48
2022-09-06T23:14:59.030Z,19.42
2022-09-06T23:17:26.059Z,19.38
2022-09-06T23:19:54.619Z,19.44
2022-09-06T23:22:21.613Z,19.51
2022-09-06T23:24:48.724Z,19.52
2022-09-06T23:27:15.830Z,19.54
2022-09-06T23:29:43.960Z,19.47
2022-09-06T23:32:11.120Z,19.48
2022-09-06T23:34:38.229Z,19.35
2022-09-06T23:37:07.071Z,19.39
2022-09-06T23:39:34.136Z,19.31
2022-09-06T23:42:02.443Z,19.27
2022-09-06T23:44:29.526Z,19.28
2022-09-06T23:46:56.523Z,19.26
2022-09-06T23:49:23.619Z,19.13
2022-09-06T23:51:50.749Z,19.17
2022-09-06T23:54:19.090Z,19.07
2022-09-06T23:56:46.371Z,19.14
2022-09-06T23:59:13.439Z,19.19
